Bloomfield, New Jersey
Current Conditions -  °F | °C
As of 10:51 AM on Saturday 22 Nov 2014 (Local Time) from KEWR Reporting Station
Few Clouds Few Clouds  
Wind Chill: 27°   Ceiling: Unl
Heat Index: 37°   Visibility: 10mi
Dew Point: 12°   Wind: 18mph
Humidity: 36%   Direction: 240°WSW
Pressure: 30.44"   Gusts: NA
Location:  40.79°N, 74.19°W
Report Text: KEWR 221551Z 24016KT 10SM FEW250 03/M11 A3044 RMK AO2 SLP307 T00281111
Loading
Personal Weather Stations






























Interactive Weather Map New forecast layout! Learn more

10-Day Weather Forecast

Advertisements
Track Severe Weather on mobile